createdAt,value
2022-08-31T00:00:04.909Z,81.58
2022-08-31T00:02:49.741Z,81.30
2022-08-31T00:05:17.590Z,80.99
2022-08-31T00:07:45.144Z,80.84
2022-08-31T00:10:18.866Z,80.51
2022-08-31T00:12:49.766Z,80.49
2022-08-31T00:15:19.838Z,80.22
2022-08-31T00:17:50.502Z,80.08
2022-08-31T00:20:32.640Z,79.96
2022-08-31T00:23:02.153Z,79.90
2022-08-31T00:25:29.759Z,79.98
2022-08-31T00:27:57.287Z,79.57
2022-08-31T00:30:24.969Z,79.56
2022-08-31T00:32:52.516Z,79.37
2022-08-31T00:35:20.570Z,79.39
2022-08-31T00:37:48.098Z,79.00
2022-08-31T00:40:15.820Z,79.09
2022-08-31T00:42:43.345Z,78.97
2022-08-31T00:45:11.433Z,78.68
2022-08-31T00:47:39.135Z,78.90
2022-08-31T00:50:10.438Z,79.05
2022-08-31T00:52:43.029Z,79.07
2022-08-31T00:55:17.454Z,79.03
2022-08-31T00:57:49.135Z,79.02
2022-08-31T01:00:25.291Z,78.79
2022-08-31T01:02:53.181Z,78.70
2022-08-31T01:05:20.883Z,78.89
2022-08-31T01:07:49.166Z,78.95
2022-08-31T01:10:19.887Z,79.00
2022-08-31T01:12:51.740Z,79.05
2022-08-31T01:15:20.310Z,79.39
2022-08-31T01:17:50.231Z,79.14
2022-08-31T01:20:27.563Z,79.37
2022-08-31T01:23:20.046Z,79.10
2022-08-31T01:25:49.756Z,79.23
2022-08-31T01:28:17.331Z,78.99
2022-08-31T01:30:45.620Z,78.71
2022-08-31T01:33:13.377Z,79.03
2022-08-31T01:35:45.912Z,78.86
2022-08-31T01:38:13.654Z,79.01
2022-08-31T01:40:52.883Z,78.90
2022-08-31T01:43:20.430Z,78.88
2022-08-31T01:45:48.023Z,78.70
2022-08-31T01:48:15.650Z,78.73
2022-08-31T01:50:43.303Z,78.53
2022-08-31T01:53:11.425Z,78.78
2022-08-31T01:55:39.488Z,78.91
2022-08-31T01:58:07.933Z,79.09
2022-08-31T02:00:35.807Z,78.83
2022-08-31T02:03:05.769Z,78.74
2022-08-31T02:05:33.306Z,78.75
2022-08-31T02:08:00.959Z,79.37
2022-08-31T02:10:28.569Z,79.01
2022-08-31T02:12:56.223Z,79.00
2022-08-31T02:15:23.744Z,79.44
2022-08-31T02:17:52.660Z,79.60
2022-08-31T02:20:20.779Z,79.68
2022-08-31T02:22:48.649Z,79.29
2022-08-31T02:25:16.824Z,79.38
2022-08-31T02:27:44.401Z,79.31
2022-08-31T02:30:16.515Z,79.36
2022-08-31T02:32:44.291Z,79.41
2022-08-31T02:35:12.935Z,79.61
2022-08-31T02:37:40.469Z,79.67
2022-08-31T02:40:11.932Z,79.56
2022-08-31T02:42:52.263Z,79.32
2022-08-31T02:45:21.722Z,79.49
2022-08-31T02:47:49.320Z,79.23
2022-08-31T02:50:17.154Z,79.61
2022-08-31T02:52:47.659Z,79.67
2022-08-31T02:55:15.539Z,79.82
2022-08-31T02:57:43.021Z,79.91
2022-08-31T03:00:11.802Z,79.68
2022-08-31T03:02:41.056Z,79.57
2022-08-31T03:05:10.159Z,79.77
2022-08-31T03:07:39.369Z,79.60
2022-08-31T03:10:09.866Z,79.64
2022-08-31T03:12:38.085Z,79.40
2022-08-31T03:15:08.033Z,79.38
2022-08-31T03:17:35.753Z,79.00
2022-08-31T03:20:06.194Z,79.02
2022-08-31T03:22:35.452Z,78.90
2022-08-31T03:25:04.201Z,78.72
2022-08-31T03:27:31.736Z,78.79
2022-08-31T03:29:59.746Z,78.31
2022-08-31T03:32:28.360Z,77.98
2022-08-31T03:34:58.816Z,77.98
2022-08-31T03:37:26.784Z,77.61
2022-08-31T03:39:54.573Z,77.03
2022-08-31T03:42:22.188Z,76.81
2022-08-31T03:44:50.235Z,76.13
2022-08-31T03:47:17.866Z,75.74
2022-08-31T03:49:45.570Z,75.23
2022-08-31T03:52:13.161Z,74.91
2022-08-31T03:54:40.721Z,74.51
2022-08-31T03:57:08.699Z,73.74
2022-08-31T03:59:36.610Z,73.40
2022-08-31T04:02:04.354Z,73.10
2022-08-31T04:04:31.860Z,72.83
2022-08-31T04:06:59.338Z,72.04
2022-08-31T04:09:26.866Z,71.34
2022-08-31T04:11:54.493Z,71.12
2022-08-31T04:14:22.046Z,70.86
2022-08-31T04:16:49.662Z,70.47
2022-08-31T04:19:17.556Z,70.08
2022-08-31T04:21:45.853Z,69.67
2022-08-31T04:24:14.214Z,69.79
2022-08-31T04:26:41.756Z,69.40
2022-08-31T04:29:13.466Z,68.78
2022-08-31T04:31:41.630Z,68.18
2022-08-31T04:34:09.106Z,68.15
2022-08-31T04:36:38.038Z,67.79
2022-08-31T04:39:07.502Z,67.69
2022-08-31T04:41:39.666Z,67.25
2022-08-31T04:44:07.546Z,67.46
2022-08-31T04:46:37.604Z,67.04
2022-08-31T04:49:07.858Z,66.86
2022-08-31T04:51:36.027Z,66.71
2022-08-31T04:54:06.905Z,66.96
2022-08-31T04:56:36.588Z,67.09
2022-08-31T04:59:07.964Z,68.10
2022-08-31T05:01:43.462Z,68.91
2022-08-31T05:04:13.831Z,70.28
2022-08-31T05:06:43.593Z,71.42
2022-08-31T05:09:14.877Z,72.57
2022-08-31T05:11:42.807Z,72.11
2022-08-31T05:14:11.125Z,72.49
2022-08-31T05:16:40.755Z,72.26
2022-08-31T05:19:08.833Z,72.17
2022-08-31T05:21:39.034Z,71.71
2022-08-31T05:24:13.596Z,71.42
2022-08-31T05:26:45.438Z,71.21
2022-08-31T05:29:15.214Z,70.64
2022-08-31T05:31:46.231Z,70.60
2022-08-31T05:34:17.782Z,70.44
2022-08-31T05:36:47.443Z,70.20
2022-08-31T05:39:14.934Z,70.15
2022-08-31T05:41:45.032Z,70.34
2022-08-31T05:44:13.406Z,70.15
2022-08-31T05:46:41.551Z,69.94
2022-08-31T05:49:10.878Z,69.50
2022-08-31T05:51:39.922Z,69.56
2022-08-31T05:54:10.710Z,69.57
2022-08-31T05:56:41.099Z,69.28
2022-08-31T05:59:10.402Z,68.88
2022-08-31T06:01:40.900Z,68.86
2022-08-31T06:04:10.409Z,68.54
2022-08-31T06:06:38.939Z,68.54
2022-08-31T06:09:08.833Z,68.36
2022-08-31T06:11:38.275Z,68.24
2022-08-31T06:14:06.677Z,68.08
2022-08-31T06:16:35.819Z,68.06
2022-08-31T06:19:07.096Z,67.70
2022-08-31T06:21:38.023Z,67.61
2022-08-31T06:24:07.548Z,67.54
2022-08-31T06:26:37.020Z,67.50
2022-08-31T06:29:07.397Z,67.22
2022-08-31T06:31:38.086Z,66.93
2022-08-31T06:34:08.278Z,67.05
2022-08-31T06:36:36.461Z,66.71
2022-08-31T06:39:04.707Z,66.59
2022-08-31T06:41:36.786Z,66.85
2022-08-31T06:44:07.449Z,66.08
2022-08-31T06:46:36.849Z,66.04
2022-08-31T06:49:05.125Z,65.96
2022-08-31T06:51:38.056Z,65.96
2022-08-31T06:54:27.896Z,65.77
2022-08-31T06:56:59.340Z,65.40
2022-08-31T06:59:29.904Z,65.65
2022-08-31T07:01:59.674Z,65.24
2022-08-31T07:04:28.094Z,64.98
2022-08-31T07:06:56.006Z,65.04
2022-08-31T07:09:23.815Z,64.62
2022-08-31T07:11:53.642Z,64.90
2022-08-31T07:14:24.904Z,64.46
2022-08-31T07:16:55.069Z,64.88
2022-08-31T07:19:23.143Z,64.81
2022-08-31T07:21:57.325Z,64.62
2022-08-31T07:24:27.792Z,63.99
2022-08-31T07:27:15.073Z,64.51
2022-08-31T07:29:43.220Z,64.32
2022-08-31T07:32:13.643Z,64.19
2022-08-31T07:34:41.372Z,64.15
2022-08-31T07:37:26.532Z,64.10
2022-08-31T07:40:12.930Z,63.15
2022-08-31T07:42:44.404Z,63.64
2022-08-31T07:45:22.522Z,63.64
2022-08-31T07:47:52.381Z,63.26
2022-08-31T07:50:21.567Z,63.53
2022-08-31T07:52:54.504Z,63.42
2022-08-31T07:55:35.037Z,63.42
2022-08-31T07:58:03.414Z,63.59
2022-08-31T08:00:33.135Z,63.21
2022-08-31T08:03:07.704Z,62.70
2022-08-31T08:05:38.654Z,61.62
2022-08-31T08:08:11.891Z,62.25
2022-08-31T08:10:52.171Z,61.91
2022-08-31T08:13:21.199Z,62.43
2022-08-31T08:15:50.829Z,61.29
2022-08-31T08:18:20.088Z,61.17
2022-08-31T08:20:48.064Z,60.41
2022-08-31T08:23:27.961Z,60.08
2022-08-31T08:25:57.774Z,60.25
2022-08-31T08:28:43.108Z,60.55
2022-08-31T08:31:17.414Z,59.16
2022-08-31T08:33:46.452Z,59.33
2022-08-31T08:36:18.168Z,58.78
2022-08-31T08:38:48.011Z,58.64
2022-08-31T08:41:19.990Z,57.76
2022-08-31T08:43:52.656Z,57.63
2022-08-31T08:46:35.237Z,58.28
2022-08-31T08:49:15.676Z,57.05
2022-08-31T08:51:44.262Z,57.40
2022-08-31T08:54:22.434Z,57.21
2022-08-31T08:56:49.951Z,56.63
2022-08-31T08:59:19.948Z,57.05
2022-08-31T09:01:50.463Z,55.72
2022-08-31T09:05:16.497Z,54.36
2022-08-31T09:08:05.093Z,53.33
2022-08-31T09:10:39.067Z,52.35
2022-08-31T09:13:55.881Z,52.33
2022-08-31T09:16:59.917Z,52.50
2022-08-31T09:19:27.901Z,51.64
2022-08-31T09:22:01.862Z,49.89
2022-08-31T09:24:30.834Z,50.25
2022-08-31T09:27:17.934Z,49.72
2022-08-31T09:29:59.602Z,49.69
2022-08-31T09:32:36.125Z,48.52
2022-08-31T09:35:09.095Z,48.23
2022-08-31T09:37:46.204Z,46.75
2022-08-31T09:40:19.663Z,48.14
2022-08-31T09:43:26.212Z,48.09
2022-08-31T09:46:08.247Z,47.66
2022-08-31T09:48:56.311Z,46.83
2022-08-31T09:51:30.183Z,46.24
2022-08-31T09:54:35.273Z,46.74
2022-08-31T09:57:06.364Z,46.43
2022-08-31T09:59:41.938Z,44.15
2022-08-31T10:02:22.648Z,44.89
2022-08-31T10:04:56.149Z,45.05
2022-08-31T10:07:43.248Z,45.41
2022-08-31T10:10:30.491Z,44.89
2022-08-31T10:13:03.685Z,44.83
2022-08-31T10:15:41.234Z,44.87
2022-08-31T10:18:16.084Z,44.31
2022-08-31T10:21:04.710Z,44.77
2022-08-31T10:23:54.071Z,43.91
2022-08-31T10:26:31.565Z,44.73
2022-08-31T10:29:06.235Z,43.46
2022-08-31T10:31:36.817Z,43.35
2022-08-31T10:34:30.774Z,44.75
2022-08-31T10:37:08.125Z,44.94
2022-08-31T10:39:44.858Z,45.08
2022-08-31T10:42:32.369Z,43.93
2022-08-31T10:45:09.251Z,43.93
2022-08-31T10:47:41.545Z,43.22
2022-08-31T10:50:11.540Z,41.46
2022-08-31T10:52:53.368Z,41.33
2022-08-31T10:55:37.230Z,40.80
2022-08-31T10:58:32.794Z,42.47
2022-08-31T11:01:18.871Z,42.37
2022-08-31T11:04:05.016Z,42.87
2022-08-31T11:06:35.501Z,41.84
2022-08-31T11:09:20.314Z,40.56
2022-08-31T11:11:58.267Z,41.29
2022-08-31T11:14:48.404Z,41.34
2022-08-31T11:17:22.422Z,40.82
2022-08-31T11:20:02.394Z,40.25
2022-08-31T11:22:42.071Z,40.11
2022-08-31T11:25:25.262Z,39.69
2022-08-31T11:28:08.175Z,40.24
2022-08-31T11:30:42.229Z,38.01
2022-08-31T11:33:14.539Z,37.50
2022-08-31T11:36:04.089Z,36.76
2022-08-31T11:38:48.739Z,35.95
2022-08-31T11:41:46.687Z,36.17
2022-08-31T11:44:29.733Z,36.60
2022-08-31T11:47:06.777Z,35.94
2022-08-31T11:49:36.795Z,35.76
2022-08-31T11:52:10.367Z,36.71
2022-08-31T11:54:42.662Z,36.45
2022-08-31T11:57:15.564Z,36.92
2022-08-31T11:59:46.364Z,37.74
2022-08-31T12:02:20.127Z,38.21
2022-08-31T12:04:48.008Z,36.67
2022-08-31T12:07:38.078Z,35.56
2022-08-31T12:10:08.597Z,34.84
2022-08-31T12:13:18.794Z,35.60
2022-08-31T12:16:25.118Z,36.05
2022-08-31T12:19:39.473Z,35.66
2022-08-31T12:22:56.694Z,34.71
2022-08-31T12:25:35.419Z,33.46
2022-08-31T12:28:07.637Z,34.10
2022-08-31T12:30:35.268Z,33.23
2022-08-31T12:33:05.532Z,33.88
2022-08-31T12:35:34.053Z,33.12
2022-08-31T12:38:11.459Z,34.18
2022-08-31T12:40:49.061Z,33.96
2022-08-31T12:43:22.106Z,34.36
2022-08-31T12:46:17.627Z,34.54
2022-08-31T12:49:07.677Z,33.62
2022-08-31T12:51:52.910Z,33.98
2022-08-31T12:54:39.168Z,35.03
2022-08-31T12:57:45.698Z,35.30
2022-08-31T13:00:27.416Z,33.85
2022-08-31T13:02:58.641Z,33.34
2022-08-31T13:05:32.819Z,33.23
2022-08-31T13:08:00.957Z,33.67
2022-08-31T13:10:38.493Z,34.71
2022-08-31T13:13:21.019Z,34.07
2022-08-31T13:15:48.688Z,34.74
2022-08-31T13:18:23.290Z,34.75
2022-08-31T13:20:56.548Z,34.12
2022-08-31T13:23:30.377Z,32.73
2022-08-31T13:26:03.327Z,33.60
2022-08-31T13:28:35.026Z,33.42
2022-08-31T13:31:09.221Z,33.25
2022-08-31T13:33:41.114Z,33.19
2022-08-31T13:36:16.146Z,32.32
2022-08-31T13:38:51.709Z,33.92
2022-08-31T13:41:30.069Z,33.42
2022-08-31T13:44:02.756Z,33.06
2022-08-31T13:46:43.198Z,33.43
2022-08-31T13:49:35.643Z,33.77
2022-08-31T13:52:08.742Z,34.11
2022-08-31T13:54:37.626Z,34.56
2022-08-31T13:57:35.854Z,33.93
2022-08-31T14:00:24.950Z,33.97
2022-08-31T14:02:53.925Z,35.37
2022-08-31T14:05:34.513Z,34.80
2022-08-31T14:08:07.204Z,35.16
2022-08-31T14:10:43.024Z,35.96
2022-08-31T14:13:27.777Z,35.85
2022-08-31T14:16:02.065Z,35.04
2022-08-31T14:18:40.253Z,35.50
2022-08-31T14:21:20.555Z,35.34
2022-08-31T14:23:52.652Z,35.07
2022-08-31T14:26:22.865Z,35.20
2022-08-31T14:28:53.673Z,35.46
2022-08-31T14:31:24.521Z,35.88
2022-08-31T14:34:10.672Z,35.60
2022-08-31T14:36:51.122Z,36.19
2022-08-31T14:39:18.619Z,36.42
2022-08-31T14:41:46.219Z,35.67
2022-08-31T14:44:14.425Z,35.43
2022-08-31T14:46:43.371Z,35.80
2022-08-31T14:49:11.339Z,35.46
2022-08-31T14:51:39.338Z,35.76
2022-08-31T14:54:11.379Z,35.70
2022-08-31T14:56:46.783Z,35.94
2022-08-31T14:59:16.375Z,35.72
2022-08-31T15:01:45.540Z,35.89
2022-08-31T15:04:15.423Z,35.79
2022-08-31T15:06:43.979Z,35.84
2022-08-31T15:09:11.647Z,36.12
2022-08-31T15:11:41.046Z,35.71
2022-08-31T15:14:12.278Z,36.10
2022-08-31T15:16:42.553Z,35.85
2022-08-31T15:19:13.491Z,36.36
2022-08-31T15:21:44.530Z,36.60
2022-08-31T15:24:12.771Z,36.20
2022-08-31T15:26:42.836Z,36.34
2022-08-31T15:29:13.737Z,36.00
2022-08-31T15:31:49.127Z,35.48
2022-08-31T15:34:24.656Z,35.99
2022-08-31T15:36:56.135Z,36.65
2022-08-31T15:39:32.365Z,36.51
2022-08-31T15:42:00.917Z,36.24
2022-08-31T15:44:28.469Z,36.48
2022-08-31T15:47:13.565Z,36.38
2022-08-31T15:49:43.566Z,35.75
2022-08-31T15:52:11.091Z,36.22
2022-08-31T15:54:41.003Z,36.54
2022-08-31T15:57:11.328Z,36.40
2022-08-31T15:59:43.685Z,36.13
2022-08-31T16:02:14.242Z,36.48
2022-08-31T16:04:43.381Z,36.38
2022-08-31T16:07:13.706Z,36.93
2022-08-31T16:09:44.462Z,37.59
2022-08-31T16:12:16.954Z,36.52
2022-08-31T16:14:45.249Z,36.61
2022-08-31T16:17:19.843Z,37.06
2022-08-31T16:19:49.282Z,36.42
2022-08-31T16:22:18.123Z,36.77
2022-08-31T16:24:46.861Z,36.31
2022-08-31T16:27:16.992Z,36.69
2022-08-31T16:29:45.632Z,36.59
2022-08-31T16:32:13.690Z,36.12
2022-08-31T16:34:42.611Z,36.58
2022-08-31T16:37:10.627Z,36.77
2022-08-31T16:39:44.090Z,36.72
2022-08-31T16:42:13.234Z,37.20
2022-08-31T16:44:43.694Z,36.68
2022-08-31T16:47:11.853Z,36.35
2022-08-31T16:49:41.253Z,36.47
2022-08-31T16:52:18.070Z,36.41
2022-08-31T16:54:50.925Z,36.14
2022-08-31T16:57:21.621Z,36.02
2022-08-31T16:59:50.307Z,36.01
2022-08-31T17:02:20.006Z,36.19
2022-08-31T17:04:52.551Z,36.05
2022-08-31T17:07:22.073Z,35.73
2022-08-31T17:09:50.014Z,36.02
2022-08-31T17:12:21.682Z,36.20
2022-08-31T17:14:52.521Z,35.83
2022-08-31T17:17:23.618Z,35.92
2022-08-31T17:19:53.106Z,36.02
2022-08-31T17:22:29.987Z,35.98
2022-08-31T17:25:02.916Z,35.23
2022-08-31T17:27:34.927Z,36.08
2022-08-31T17:30:05.780Z,36.24
2022-08-31T17:32:36.441Z,36.38
2022-08-31T17:35:07.875Z,35.96
2022-08-31T17:37:36.446Z,36.13
2022-08-31T17:40:08.016Z,35.77
2022-08-31T17:42:36.263Z,35.67
2022-08-31T17:45:06.353Z,36.08
2022-08-31T17:47:35.858Z,36.25
2022-08-31T17:50:03.469Z,36.39
2022-08-31T17:52:30.975Z,36.39
2022-08-31T17:55:01.803Z,36.56
2022-08-31T17:57:29.574Z,36.71
2022-08-31T17:59:57.234Z,36.86
2022-08-31T18:02:32.522Z,37.03
2022-08-31T18:05:01.134Z,37.36
2022-08-31T18:07:29.571Z,37.24
2022-08-31T18:09:57.485Z,37.28
2022-08-31T18:12:25.751Z,37.70
2022-08-31T18:14:57.934Z,37.78
2022-08-31T18:17:26.543Z,37.94
2022-08-31T18:19:54.646Z,38.18
2022-08-31T18:22:22.312Z,38.52
2022-08-31T18:24:49.846Z,38.62
2022-08-31T18:27:17.526Z,38.99
2022-08-31T18:29:46.211Z,39.05
2022-08-31T18:32:14.895Z,39.42
2022-08-31T18:34:46.301Z,39.55
2022-08-31T18:37:16.205Z,39.71
2022-08-31T18:40:04.213Z,39.69
2022-08-31T18:42:51.597Z,40.13
2022-08-31T18:45:19.956Z,40.56
2022-08-31T18:50:50.976Z,40.63
2022-08-31T18:53:29.515Z,40.96
2022-08-31T18:56:08.858Z,41.14
2022-08-31T18:58:37.163Z,41.64
2022-08-31T19:01:10.246Z,41.95
2022-08-31T19:03:39.349Z,42.03
2022-08-31T19:06:08.165Z,42.17
2022-08-31T19:08:36.170Z,42.16
2022-08-31T19:11:08.100Z,42.71
2022-08-31T19:13:36.193Z,42.79
2022-08-31T19:16:15.065Z,42.71
2022-08-31T19:18:44.778Z,42.97
2022-08-31T19:21:24.257Z,43.25
2022-08-31T19:23:52.572Z,43.66
2022-08-31T19:26:23.041Z,43.70
2022-08-31T19:28:51.396Z,43.87
2022-08-31T19:31:20.955Z,44.14
2022-08-31T19:33:49.089Z,44.53
2022-08-31T19:36:16.831Z,44.64
2022-08-31T19:38:47.195Z,44.86
2022-08-31T19:41:26.324Z,44.93
2022-08-31T19:44:07.365Z,45.04
2022-08-31T19:46:35.863Z,45.09
2022-08-31T19:49:03.448Z,45.17
2022-08-31T19:51:32.021Z,45.46
2022-08-31T19:54:00.862Z,45.48
2022-08-31T19:56:31.018Z,45.81
2022-08-31T19:58:59.957Z,46.60
2022-08-31T20:01:33.799Z,47.41
2022-08-31T20:04:04.136Z,48.80
2022-08-31T20:06:32.501Z,49.75
2022-08-31T20:09:00.593Z,50.85
2022-08-31T20:11:31.011Z,51.73
2022-08-31T20:14:00.213Z,52.80
2022-08-31T20:16:33.822Z,54.18
2022-08-31T20:19:04.742Z,54.75
2022-08-31T20:21:35.038Z,55.91
2022-08-31T20:24:06.993Z,56.82
2022-08-31T20:26:43.583Z,57.39
2022-08-31T20:29:13.806Z,58.52
2022-08-31T20:31:45.502Z,59.50
2022-08-31T20:34:18.580Z,59.99
2022-08-31T20:36:49.994Z,60.98
2022-08-31T20:39:19.892Z,61.23
2022-08-31T20:41:49.934Z,61.98
2022-08-31T20:44:24.003Z,62.45
2022-08-31T20:47:15.326Z,62.86
2022-08-31T20:49:45.979Z,63.30
2022-08-31T20:52:16.146Z,63.49
2022-08-31T20:54:44.522Z,63.80
2022-08-31T20:57:14.446Z,64.17
2022-08-31T20:59:42.492Z,63.89
2022-08-31T21:02:10.619Z,63.79
2022-08-31T21:04:44.639Z,63.97
2022-08-31T21:07:14.564Z,64.08
2022-08-31T21:09:44.645Z,64.35
2022-08-31T21:12:18.034Z,64.36
2022-08-31T21:14:48.685Z,64.81
2022-08-31T21:17:16.929Z,65.12
2022-08-31T21:19:45.341Z,65.39
2022-08-31T21:22:16.947Z,65.66
2022-08-31T21:24:44.574Z,65.74
2022-08-31T21:27:14.988Z,66.28
2022-08-31T21:29:46.805Z,66.86
2022-08-31T21:32:15.522Z,67.31
2022-08-31T21:34:43.030Z,67.73
2022-08-31T21:37:10.657Z,68.38
2022-08-31T21:39:38.638Z,68.60
2022-08-31T21:42:06.899Z,69.04
2022-08-31T21:44:35.803Z,69.52
2022-08-31T21:47:03.395Z,70.11
2022-08-31T21:49:30.997Z,70.14
2022-08-31T21:51:59.941Z,70.79
2022-08-31T21:54:29.686Z,70.84
2022-08-31T21:57:00.197Z,71.04
2022-08-31T21:59:32.519Z,71.31
2022-08-31T22:02:06.694Z,71.64
2022-08-31T22:04:38.621Z,71.88
2022-08-31T22:07:07.691Z,72.16
2022-08-31T22:09:36.916Z,72.66
2022-08-31T22:12:06.721Z,72.78
2022-08-31T22:14:37.991Z,73.17
2022-08-31T22:17:07.752Z,73.32
2022-08-31T22:19:38.887Z,73.68
2022-08-31T22:22:11.838Z,74.07
2022-08-31T22:24:41.256Z,74.27
2022-08-31T22:27:11.114Z,74.41
2022-08-31T22:29:40.369Z,74.26
2022-08-31T22:32:15.082Z,73.98
2022-08-31T22:34:43.664Z,74.81
2022-08-31T22:37:13.806Z,75.39
2022-08-31T22:39:42.677Z,75.59
2022-08-31T22:42:13.139Z,75.59
2022-08-31T22:44:41.005Z,75.78
2022-08-31T22:47:09.365Z,76.34
2022-08-31T22:49:36.868Z,76.30
2022-08-31T22:52:05.075Z,76.21
2022-08-31T22:54:34.420Z,76.96
2022-08-31T22:57:02.156Z,77.77
2022-08-31T22:59:30.512Z,78.06
2022-08-31T23:02:02.012Z,78.41
2022-08-31T23:04:31.658Z,78.50
2022-08-31T23:07:01.203Z,78.86
2022-08-31T23:09:31.129Z,79.63
2022-08-31T23:12:01.269Z,79.60
2022-08-31T23:14:32.048Z,80.01
2022-08-31T23:17:01.362Z,80.86
2022-08-31T23:19:36.966Z,80.99
2022-08-31T23:22:09.204Z,81.54
2022-08-31T23:24:38.888Z,82.08
2022-08-31T23:27:10.245Z,82.19
2022-08-31T23:29:41.301Z,82.05
2022-08-31T23:32:11.164Z,82.67
2022-08-31T23:34:39.743Z,83.02
2022-08-31T23:37:08.686Z,83.97
2022-08-31T23:39:39.304Z,83.95
2022-08-31T23:42:12.101Z,84.69
2022-08-31T23:44:41.794Z,85.10
2022-08-31T23:47:10.973Z,85.40
2022-08-31T23:49:39.185Z,85.37
2022-08-31T23:52:07.185Z,85.62
2022-08-31T23:54:37.291Z,86.13
2022-08-31T23:57:06.071Z,86.24
2022-08-31T23:59:36.366Z,86.70
